Time;durP1;ratioP1;P1;durP2;ratioP2;P2;SDS_P1;SDS_P2;PMS_P1;PMS_P2;Temp;Humidity;BMP_temperature;BMP_pressure;BME280_temperature;BME280_humidity;BME280_pressure;Samples;Min_cycle;Max_cycle;Signal;HPM_P1;HPM_P2
2023/01/04 00:00:33;;;;;;;;;7.00;3.75;;;;;10.63;70.18;102044.28;5060357;28;45434;-63
2023/01/04 00:02:58;;;;;;;;;4.00;3.50;;;;;10.66;70.75;102046.91;5060456;28;45392;-63
2023/01/04 00:05:23;;;;;;;;;7.25;5.75;;;;;10.68;70.42;102050.44;5060099;28;45275;-63
2023/01/04 00:07:49;;;;;;;;;2.50;2.50;;;;;10.73;70.52;102058.34;5068061;28;45426;-63
2023/01/04 00:10:14;;;;;;;;;3.50;2.75;;;;;10.71;70.48;102045.19;5059914;28;45359;-63
2023/01/04 00:12:39;;;;;;;;;1.00;1.00;;;;;10.72;70.06;102049.56;5060095;28;45437;-63
2023/01/04 00:15:05;;;;;;;;;3.25;2.00;;;;;10.81;70.65;102051.38;5059851;28;45511;-63
2023/01/04 00:17:31;;;;;;;;;1.50;1.50;;;;;10.82;70.48;102047.88;5051495;28;45237;-63
2023/01/04 00:19:56;;;;;;;;;1.00;1.00;;;;;10.82;70.65;102052.28;5055618;28;45361;-63
2023/01/04 00:22:21;;;;;;;;;4.00;2.50;;;;;10.84;70.51;102058.41;5059858;28;46086;-63
2023/01/04 00:24:47;;;;;;;;;3.00;1.50;;;;;10.79;70.26;102052.25;5059696;28;45423;-63
2023/01/04 00:27:12;;;;;;;;;3.00;3.00;;;;;10.89;70.67;102077.72;5060019;28;45538;-64
2023/01/04 00:29:37;;;;;;;;;7.25;5.00;;;;;10.89;69.80;102054.94;5059783;28;45561;-63
2023/01/04 00:32:03;;;;;;;;;3.25;3.25;;;;;10.97;70.59;102061.97;5060094;28;45364;-63
2023/01/04 00:34:28;;;;;;;;;3.00;3.00;;;;;10.95;70.74;102056.72;5059693;28;45231;-64
2023/01/04 00:36:53;;;;;;;;;4.00;3.00;;;;;10.94;70.24;102069.84;5060065;28;45265;-63
2023/01/04 00:39:20;;;;;;;;;3.75;2.75;;;;;10.95;70.86;102051.44;5059380;28;45580;-64
2023/01/04 00:41:51;;;;;;;;;3.50;2.00;;;;;10.98;70.72;102062.00;5059758;28;45318;-63
2023/01/04 00:44:17;;;;;;;;;2.75;2.75;;;;;10.95;69.97;102050.59;5058321;28;45178;-63
2023/01/04 00:46:43;;;;;;;;;3.75;1.75;;;;;10.92;70.24;102051.44;5059857;28;45359;-64
2023/01/04 00:49:10;;;;;;;;;2.50;2.50;;;;;11.00;70.62;102051.47;5059657;28;45480;-64
2023/01/04 00:51:37;;;;;;;;;3.00;3.00;;;;;11.02;70.84;102065.53;5059461;28;45312;-63
2023/01/04 00:54:06;;;;;;;;;3.00;3.00;;;;;11.01;70.71;102046.22;5059282;28;45529;-63
2023/01/04 00:56:33;;;;;;;;;2.75;2.75;;;;;11.09;70.63;102038.34;5076517;28;45349;-64
2023/01/04 00:59:00;;;;;;;;;3.00;1.50;;;;;11.03;70.45;102043.59;5062935;28;45184;-63
2023/01/04 01:01:27;;;;;;;;;7.00;4.00;;;;;11.05;70.71;102074.28;5063069;28;46774;-64
2023/01/04 01:03:57;;;;;;;;;3.00;2.75;;;;;11.08;70.75;102051.50;5062908;28;45303;-64
2023/01/04 01:06:23;;;;;;;;;5.25;3.25;;;;;11.05;70.56;102050.63;5063282;28;45311;-63
2023/01/04 01:08:50;;;;;;;;;0.00;0.00;;;;;11.13;70.68;102058.56;5063002;28;45166;-64
2023/01/04 01:11:16;;;;;;;;;3.00;2.00;;;;;11.18;70.59;102059.47;5062752;28;46400;-64
2023/01/04 01:13:42;;;;;;;;;3.75;3.25;;;;;11.15;70.34;102043.66;5062878;28;45374;-64
2023/01/04 01:16:14;;;;;;;;;3.00;2.50;;;;;11.18;70.60;102053.31;5068589;28;45465;-64
2023/01/04 01:18:41;;;;;;;;;3.50;2.00;;;;;11.20;70.71;102036.66;5049339;28;45462;-64
2023/01/04 01:21:14;;;;;;;;;0.00;0.00;;;;;11.16;70.90;102028.75;5062718;28;45599;-64
2023/01/04 01:23:40;;;;;;;;;3.00;2.00;;;;;11.20;70.79;102056.84;5062397;28;45358;-64
2023/01/04 01:26:10;;;;;;;;;2.50;2.00;;;;;11.19;70.22;102032.28;5062864;28;45260;-64
2023/01/04 01:28:35;;;;;;;;;3.25;3.00;;;;;11.17;70.41;102017.34;5059052;28;45368;-64
2023/01/04 01:31:06;;;;;;;;;1.00;1.00;;;;;11.16;70.40;102019.09;5062435;28;45405;-64
2023/01/04 01:33:31;;;;;;;;;4.00;3.00;;;;;11.21;70.73;102020.00;5062782;28;45366;-64
2023/01/04 01:36:01;;;;;;;;;3.00;3.00;;;;;11.20;70.58;102020.88;5062460;28;45373;-64
2023/01/04 01:38:26;;;;;;;;;4.00;3.75;;;;;11.20;70.65;102023.50;5062641;28;45327;-64
2023/01/04 01:40:52;;;;;;;;;3.25;2.00;;;;;11.26;70.66;102027.03;5062188;28;45390;-64
2023/01/04 01:43:19;;;;;;;;;6.00;4.00;;;;;11.22;70.54;102034.91;5062190;28;45240;-65
2023/01/04 01:45:48;;;;;;;;;5.00;3.50;;;;;11.26;70.54;102035.81;5062376;28;45243;-64
2023/01/04 01:48:20;;;;;;;;;4.50;3.00;;;;;11.32;70.51;102041.09;5062577;28;45312;-64
2023/01/04 01:51:01;;;;;;;;;3.00;3.00;;;;;11.32;70.49;102043.72;5062077;28;45434;-64
2023/01/04 01:53:30;;;;;;;;;3.00;3.00;;;;;11.34;70.64;102036.69;5062026;28;45239;-64
2023/01/04 01:55:57;;;;;;;;;4.00;3.00;;;;;11.32;70.60;102048.09;5077688;28;45415;-64
2023/01/04 01:58:32;;;;;;;;;2.00;2.00;;;;;11.37;70.62;102041.09;5062238;28;45388;-64
2023/01/04 02:00:58;;;;;;;;;4.00;4.00;;;;;11.39;70.49;102028.81;5077872;28;46342;-64
2023/01/04 02:03:38;;;;;;;;;2.75;2.50;;;;;11.35;70.55;102042.84;5062059;28;45322;-64
2023/01/04 02:06:11;;;;;;;;;3.00;3.00;;;;;11.36;70.50;102042.00;5062455;28;45228;-64
2023/01/04 02:08:39;;;;;;;;;3.25;3.25;;;;;11.35;70.39;102048.13;5061454;28;45200;-64
2023/01/04 02:11:05;;;;;;;;;6.50;4.00;;;;;11.35;70.35;102029.69;5061672;28;45271;-64
2023/01/04 02:16:37;;;;;;;;;4.00;3.00;;;;;11.34;70.38;102062.16;5051556;28;45340;-64
2023/01/04 02:19:18;;;;;;;;;4.00;4.00;;;;;11.30;70.42;102016.53;5050400;28;45485;-64
2023/01/04 02:21:46;;;;;;;;;3.50;3.25;;;;;11.28;70.81;102027.91;5061707;28;45233;-64
2023/01/04 02:24:25;;;;;;;;;4.50;3.00;;;;;11.33;70.49;102013.91;5077434;28;45419;-65
2023/01/04 02:26:59;;;;;;;;;7.00;3.25;;;;;11.35;70.32;102025.31;5061671;28;45363;-65
2023/01/04 02:29:43;;;;;;;;;5.00;2.00;;;;;11.32;70.46;102006.88;5061767;28;45473;-64
2023/01/04 02:32:42;;;;;;;;;6.00;3.25;;;;;11.30;69.89;101997.22;5061891;28;45313;-64
2023/01/04 02:35:31;;;;;;;;;4.50;2.50;;;;;11.37;70.16;102013.03;5049474;28;45267;-64
2023/01/04 02:38:13;;;;;;;;;3.50;2.25;;;;;11.37;70.45;102015.66;5061427;28;45241;-64
2023/01/04 02:41:06;;;;;;;;;3.25;3.25;;;;;11.44;70.44;102019.19;5061786;28;45461;-65
2023/01/04 02:46:39;;;;;;;;;5.50;4.00;;;;;11.37;70.21;102020.03;5061631;28;45541;-64
2023/01/04 02:51:49;;;;;;;;;7.00;5.00;;;;;11.41;70.31;102032.34;5061231;28;45461;-63
2023/01/04 02:54:24;;;;;;;;;3.00;3.00;;;;;11.37;69.83;102031.47;5060923;28;46112;-64
2023/01/04 02:57:29;;;;;;;;;5.00;3.75;;;;;11.42;70.13;102020.97;5061470;28;45450;-64
2023/01/04 03:00:13;;;;;;;;;3.00;3.00;;;;;11.44;70.08;102024.44;5052764;28;45281;-64
2023/01/04 03:08:30;;;;;;;;;3.25;2.25;;;;;11.39;70.25;102013.03;5060908;28;45349;-64
2023/01/04 03:11:03;;;;;;;;;3.00;3.00;;;;;11.47;70.51;102027.09;5061410;28;45347;-64
2023/01/04 03:13:44;;;;;;;;;4.00;2.00;;;;;11.44;70.57;102013.06;5061124;28;45555;-64
2023/01/04 03:16:18;;;;;;;;;5.25;4.00;;;;;11.47;70.37;102010.41;5060890;28;46177;-64
2023/01/04 03:18:48;;;;;;;;;7.25;4.00;;;;;11.50;70.26;102013.06;5046666;28;45323;-64
2023/01/04 03:21:17;;;;;;;;;2.50;2.00;;;;;11.46;70.52;102003.38;5060975;28;45287;-64
2023/01/04 03:49:56;;;;;;;;;3.00;3.00;;;;;11.38;70.38;101988.47;5060800;28;45698;-64
2023/01/04 03:52:25;;;;;;;;;3.00;2.75;;;;;11.41;70.59;101992.88;5060183;28;45457;-64
2023/01/04 03:54:52;;;;;;;;;4.00;4.00;;;;;11.41;70.51;101992.88;5060402;28;45501;-64
2023/01/04 03:57:19;;;;;;;;;5.00;4.25;;;;;11.39;70.24;101976.19;5060130;28;45276;-64
2023/01/04 03:59:52;;;;;;;;;3.00;3.00;;;;;11.37;70.51;101970.03;5060386;28;46486;-63
2023/01/04 04:02:22;;;;;;;;;3.00;3.00;;;;;11.43;70.30;101963.91;5060271;28;45232;-64
2023/01/04 04:10:15;;;;;;;;;3.00;3.00;;;;;11.46;70.54;101958.63;5060046;28;45177;-63
2023/01/04 04:12:41;;;;;;;;;4.75;4.75;;;;;11.45;70.45;101956.91;5059983;28;45250;-64
2023/01/04 04:15:07;;;;;;;;;3.00;2.50;;;;;11.48;70.47;101943.75;5060217;28;45187;-64
2023/01/04 04:17:32;;;;;;;;;8.00;4.75;;;;;11.45;70.71;101967.44;5050843;28;45445;-64
2023/01/04 04:19:57;;;;;;;;;3.75;2.75;;;;;11.41;70.49;101940.22;5056012;28;45295;-64
2023/01/04 04:22:23;;;;;;;;;5.00;3.00;;;;;11.44;70.65;101947.25;5060170;28;45358;-63
2023/01/04 04:24:48;;;;;;;;;2.50;2.50;;;;;11.45;70.83;101946.38;5075662;28;45332;-63
2023/01/04 04:27:13;;;;;;;;;3.00;1.75;;;;;11.42;70.39;101951.63;5059928;28;45385;-63
2023/01/04 04:29:39;;;;;;;;;2.25;2.25;;;;;11.43;70.65;101971.81;5059960;28;46145;-64
2023/01/04 04:32:04;;;;;;;;;5.00;4.00;;;;;11.50;70.80;101958.66;5060087;28;45244;-64
2023/01/04 04:34:29;;;;;;;;;5.00;3.25;;;;;11.49;70.65;101970.06;5060181;28;45304;-63
2023/01/04 04:36:55;;;;;;;;;4.50;4.00;;;;;11.48;70.90;101957.81;5059970;28;45532;-63
2023/01/04 04:39:20;;;;;;;;;3.75;3.00;;;;;11.43;70.58;101974.44;5059637;28;45407;-63
2023/01/04 04:41:45;;;;;;;;;7.50;4.75;;;;;11.44;71.19;101966.53;5059634;27;45265;-63
2023/01/04 04:44:17;;;;;;;;;4.00;4.00;;;;;11.48;70.93;101967.44;5058237;28;45328;-63
2023/01/04 04:46:43;;;;;;;;;3.00;3.00;;;;;11.38;70.57;101982.31;5059807;28;45464;-63
2023/01/04 04:49:09;;;;;;;;;5.00;3.75;;;;;11.43;71.26;101961.28;5059395;28;46204;-63
2023/01/04 04:51:35;;;;;;;;;2.00;2.00;;;;;11.44;71.15;101965.69;5059474;28;45383;-63
2023/01/04 04:54:01;;;;;;;;;4.25;3.25;;;;;11.44;71.19;101963.03;5059508;28;45320;-63
2023/01/04 04:56:26;;;;;;;;;7.50;4.00;;;;;11.36;70.99;101958.63;5059396;28;45311;-63
2023/01/04 04:58:52;;;;;;;;;4.50;3.00;;;;;11.38;70.80;101942.84;5059497;27;45497;-63
2023/01/04 05:01:17;;;;;;;;;7.75;5.75;;;;;11.41;71.23;101961.28;5060292;27;45450;-63
2023/01/04 05:03:43;;;;;;;;;4.25;3.75;;;;;11.47;71.32;101960.41;5058446;28;45269;-63
2023/01/04 05:06:08;;;;;;;;;4.00;4.00;;;;;11.41;70.83;101948.13;5059592;28;45156;-63
2023/01/04 05:08:34;;;;;;;;;2.00;2.00;;;;;11.40;71.01;101961.28;5059252;28;45756;-63
2023/01/04 05:11:04;;;;;;;;;3.00;3.00;;;;;11.45;71.02;101964.81;5059503;28;45379;-63
2023/01/04 05:13:29;;;;;;;;;3.25;3.25;;;;;11.46;71.21;101950.75;5059457;28;45383;-63
2023/01/04 05:15:54;;;;;;;;;9.00;5.00;;;;;11.48;70.87;101944.63;5059358;28;45303;-63
2023/01/04 05:18:21;;;;;;;;;6.25;4.00;;;;;11.46;70.89;101946.38;5045814;28;45430;-63
2023/01/04 05:20:46;;;;;;;;;4.75;4.75;;;;;11.44;71.13;101924.44;5059641;28;45404;-63
2023/01/04 05:23:14;;;;;;;;;4.00;2.00;;;;;11.48;71.46;101952.53;5059073;28;45424;-63
2023/01/04 05:25:39;;;;;;;;;5.25;3.00;;;;;11.48;70.87;101952.53;5059505;28;45238;-63
2023/01/04 05:28:06;;;;;;;;;5.00;4.25;;;;;11.49;71.37;101932.34;5057583;28;47196;-64
2023/01/04 05:30:49;;;;;;;;;6.50;6.00;;;;;11.52;71.09;101940.22;5059343;28;45272;-64
2023/01/04 05:33:16;;;;;;;;;2.50;2.50;;;;;11.54;71.38;101946.38;5059293;28;45212;-64
2023/01/04 05:35:41;;;;;;;;;4.00;4.00;;;;;11.54;72.49;101946.38;5059107;28;45507;-63
2023/01/04 05:38:06;;;;;;;;;3.75;3.50;;;;;11.48;71.34;101933.22;5058603;28;45231;-64
2023/01/04 05:40:32;;;;;;;;;4.00;3.00;;;;;11.49;71.11;101935.84;5059362;28;45315;-63
2023/01/04 05:42:57;;;;;;;;;5.75;3.00;;;;;11.40;70.96;101937.59;5075100;28;45621;-62
2023/01/04 05:45:22;;;;;;;;;5.25;4.00;;;;;11.46;71.30;101945.47;5062656;28;45450;-63
2023/01/04 05:47:49;;;;;;;;;4.00;4.00;;;;;11.45;71.33;101949.00;5062352;28;46183;-63
2023/01/04 05:50:16;;;;;;;;;5.50;3.75;;;;;11.48;71.85;101936.75;5061301;28;45335;-64
2023/01/04 05:52:42;;;;;;;;;5.50;4.25;;;;;11.40;70.84;101950.75;5061985;28;45312;-63
2023/01/04 05:55:07;;;;;;;;;3.75;3.75;;;;;11.54;72.13;101931.44;5061030;28;45235;-64
2023/01/04 05:57:33;;;;;;;;;5.50;4.00;;;;;11.53;71.72;101942.88;5061957;28;46166;-63
2023/01/04 05:59:58;;;;;;;;;4.00;3.50;;;;;11.55;72.70;101935.84;5062566;28;45301;-64
2023/01/04 06:02:27;;;;;;;;;3.75;3.75;;;;;11.50;72.09;101939.38;5062276;28;45253;-64
2023/01/04 06:04:52;;;;;;;;;1.25;1.00;;;;;11.51;72.15;101943.75;5062462;28;45307;-64
2023/01/04 06:07:18;;;;;;;;;4.75;2.75;;;;;11.51;71.80;101949.03;5062000;28;46174;-63
2023/01/04 06:09:43;;;;;;;;;3.00;3.00;;;;;11.51;72.31;101949.88;5067875;28;45407;-64
2023/01/04 06:12:09;;;;;;;;;4.75;3.00;;;;;11.55;72.12;101954.28;5062097;28;45299;-64
2023/01/04 06:14:35;;;;;;;;;2.50;2.25;;;;;11.51;72.10;101947.25;5062116;28;45451;-64
2023/01/04 06:17:00;;;;;;;;;3.25;3.25;;;;;11.51;71.28;101949.88;5046134;28;46565;-64
2023/01/04 06:19:26;;;;;;;;;4.25;3.00;;;;;11.51;71.87;101949.88;5053519;28;45361;-65
2023/01/04 06:21:52;;;;;;;;;1.75;1.50;;;;;11.53;72.12;101949.88;5062039;28;45584;-64
2023/01/04 06:24:17;;;;;;;;;4.00;2.00;;;;;11.54;72.12;101949.00;5061975;28;45332;-64
2023/01/04 06:26:43;;;;;;;;;3.00;3.00;;;;;11.52;71.71;101942.84;5061480;28;45847;-64
2023/01/04 06:29:09;;;;;;;;;2.00;1.00;;;;;11.57;72.37;101940.25;5062003;28;45319;-64
2023/01/04 06:31:34;;;;;;;;;4.25;3.00;;;;;11.56;72.31;101949.91;5061798;28;45229;-65
2023/01/04 06:34:00;;;;;;;;;2.00;2.00;;;;;11.61;72.69;101940.25;5062006;28;45402;-65
2023/01/04 06:36:25;;;;;;;;;1.25;1.25;;;;;11.45;72.29;101936.72;5061295;28;45341;-64
2023/01/04 06:38:51;;;;;;;;;2.00;2.00;;;;;11.54;72.42;101964.81;5061458;28;45606;-63
2023/01/04 06:41:17;;;;;;;;;3.00;2.50;;;;;11.58;71.62;101955.16;5077389;28;45363;-64
2023/01/04 06:43:42;;;;;;;;;1.00;1.00;;;;;11.56;72.48;101957.81;5077375;28;45401;-64
2023/01/04 06:46:07;;;;;;;;;3.00;2.75;;;;;11.57;72.36;101967.44;5061492;28;45366;-64
2023/01/04 06:48:33;;;;;;;;;2.00;2.00;;;;;11.59;71.98;101967.47;5061714;28;45363;-64
2023/01/04 06:50:58;;;;;;;;;2.50;2.50;;;;;11.65;72.15;101956.94;5061605;28;45486;-64
2023/01/04 06:53:23;;;;;;;;;1.25;1.25;;;;;11.62;72.11;101960.44;5060462;28;45418;-64
2023/01/04 06:55:49;;;;;;;;;2.50;2.50;;;;;11.63;72.37;101959.53;5060717;28;45279;-64
2023/01/04 06:58:14;;;;;;;;;2.25;2.00;;;;;11.62;72.08;101963.09;5061449;28;45355;-64
2023/01/04 07:00:40;;;;;;;;;2.25;2.00;;;;;11.62;71.57;101975.34;5061615;28;45275;-64
2023/01/04 07:03:05;;;;;;;;;1.00;1.00;;;;;11.64;72.30;101978.88;5061345;28;45228;-64
2023/01/04 07:05:30;;;;;;;;;2.00;2.00;;;;;11.66;72.08;101975.34;5076888;28;46377;-64
2023/01/04 07:08:00;;;;;;;;;4.00;2.25;;;;;11.69;72.43;101987.66;5061087;28;45335;-64
2023/01/04 07:10:25;;;;;;;;;3.00;3.00;;;;;11.69;72.38;101969.22;5061334;28;45181;-64
2023/01/04 07:12:51;;;;;;;;;3.25;2.50;;;;;11.73;71.81;101970.97;5060916;28;45322;-64
2023/01/04 07:15:16;;;;;;;;;2.25;1.50;;;;;11.74;72.28;101927.09;5061047;28;45418;-63
2023/01/04 07:17:41;;;;;;;;;2.50;2.50;;;;;11.75;72.50;101963.97;5076678;28;45402;-63
2023/01/04 07:20:07;;;;;;;;;4.00;3.00;;;;;11.75;72.46;101955.16;5061171;28;45403;-63
2023/01/04 07:22:32;;;;;;;;;3.25;3.00;;;;;11.82;72.43;101964.81;5060981;28;45482;-63
2023/01/04 07:24:58;;;;;;;;;3.50;3.25;;;;;11.81;71.88;101956.06;5060805;28;45260;-63
2023/01/04 07:27:23;;;;;;;;;3.50;1.25;;;;;11.80;72.86;101953.44;5060802;28;45354;-64
2023/01/04 07:29:48;;;;;;;;;2.75;2.75;;;;;11.81;72.52;101952.53;5061069;28;45354;-64
2023/01/04 07:32:15;;;;;;;;;3.00;3.00;;;;;11.83;72.68;101941.13;5060986;28;45400;-63
2023/01/04 07:34:41;;;;;;;;;4.50;3.25;;;;;11.83;72.20;101937.63;5076512;28;46101;-63
2023/01/04 07:37:08;;;;;;;;;3.00;3.00;;;;;11.85;72.65;101946.41;5060706;28;45182;-65
2023/01/04 07:39:33;;;;;;;;;2.75;2.75;;;;;11.83;72.48;101933.22;5060519;28;45249;-63
2023/01/04 07:41:58;;;;;;;;;2.50;2.50;;;;;11.85;72.07;101933.25;5060684;28;45192;-63
2023/01/04 07:44:26;;;;;;;;;6.00;3.75;;;;;11.85;72.62;101938.50;5060587;28;45410;-64
2023/01/04 07:46:52;;;;;;;;;4.50;4.00;;;;;11.90;72.66;101951.66;5060712;28;45244;-64
2023/01/04 07:49:17;;;;;;;;;3.75;2.50;;;;;11.86;72.39;101943.75;5060692;28;45292;-63
2023/01/04 07:51:43;;;;;;;;;3.50;3.50;;;;;11.89;72.62;101950.78;5060607;28;45303;-63
2023/01/04 07:54:09;;;;;;;;;4.00;4.00;;;;;11.92;72.48;101953.41;5060252;28;46322;-64
2023/01/04 07:56:35;;;;;;;;;3.00;3.00;;;;;11.91;73.09;101950.78;5075904;28;45422;-63
2023/01/04 07:59:00;;;;;;;;;3.00;3.00;;;;;11.91;72.64;101950.78;5060555;28;45424;-63
2023/01/04 08:01:26;;;;;;;;;3.00;1.50;;;;;11.83;72.42;101950.78;5060577;28;45481;-63
2023/01/04 08:03:52;;;;;;;;;5.50;5.00;;;;;11.90;72.50;101942.00;5076050;28;46620;-64
2023/01/04 08:06:19;;;;;;;;;4.25;4.00;;;;;11.87;71.71;101937.63;5060233;28;45164;-63
2023/01/04 08:08:45;;;;;;;;;3.50;3.50;;;;;11.93;72.64;101952.53;5060123;27;45457;-64
2023/01/04 08:11:13;;;;;;;;;3.25;2.00;;;;;11.92;71.71;101957.81;5060238;28;45165;-63
2023/01/04 08:13:39;;;;;;;;;3.00;3.00;;;;;11.94;72.49;101954.28;5060096;28;46916;-63
2023/01/04 08:16:05;;;;;;;;;2.50;2.50;;;;;11.96;72.22;101967.50;5060168;28;45319;-63
2023/01/04 08:18:30;;;;;;;;;2.75;2.25;;;;;11.99;72.21;101960.47;5075765;28;45427;-63
2023/01/04 08:21:04;;;;;;;;;2.75;2.50;;;;;12.01;72.44;101952.56;5060342;28;45315;-63
2023/01/04 08:23:30;;;;;;;;;4.00;4.00;;;;;12.07;72.15;101955.19;5059653;28;45601;-63
2023/01/04 08:26:03;;;;;;;;;1.50;1.50;;;;;12.08;72.45;101956.09;5060105;28;45674;-63
2023/01/04 08:28:28;;;;;;;;;3.00;1.00;;;;;12.09;72.43;101944.63;5060190;28;45271;-63
2023/01/04 08:30:54;;;;;;;;;4.50;3.00;;;;;12.12;71.83;101949.91;5060060;28;45477;-63
2023/01/04 08:33:19;;;;;;;;;5.25;5.25;;;;;12.13;72.42;101963.09;5059884;28;46463;-63
2023/01/04 08:35:44;;;;;;;;;4.75;3.50;;;;;12.08;71.84;101942.91;5060234;28;45307;-63
2023/01/04 08:38:09;;;;;;;;;3.25;3.25;;;;;12.08;72.78;101937.63;5060002;28;45447;-64
2023/01/04 08:40:35;;;;;;;;;4.00;3.00;;;;;12.19;73.21;101946.41;5060493;28;45426;-64
2023/01/04 08:43:00;;;;;;;;;0.00;0.00;;;;;12.17;72.84;101956.91;5059671;28;45380;-63
2023/01/04 08:45:25;;;;;;;;;3.00;3.00;;;;;12.19;72.71;101951.69;5060569;28;45366;-64
2023/01/04 08:47:51;;;;;;;;;2.50;2.50;;;;;12.19;72.88;101968.34;5059820;28;45533;-65
2023/01/04 08:50:19;;;;;;;;;2.50;1.75;;;;;12.15;73.19;101949.91;5060049;28;45242;-64
2023/01/04 08:52:44;;;;;;;;;2.25;1.75;;;;;12.19;72.97;101955.19;5059202;28;46333;-64
2023/01/04 08:55:10;;;;;;;;;3.50;2.00;;;;;12.13;72.74;101956.94;5059729;28;45362;-63
2023/01/04 08:57:35;;;;;;;;;5.50;4.50;;;;;12.12;73.06;101963.97;5075282;28;45282;-64
2023/01/04 09:00:01;;;;;;;;;4.00;3.00;;;;;12.19;72.73;101976.25;5059806;28;45580;-64
2023/01/04 09:02:27;;;;;;;;;2.00;2.00;;;;;12.22;73.06;101959.56;5059639;28;45379;-65
2023/01/04 09:04:58;;;;;;;;;5.25;4.00;;;;;12.14;72.62;101954.31;5059698;28;45422;-64
2023/01/04 09:07:24;;;;;;;;;4.50;2.50;;;;;12.20;73.10;101966.63;5059707;28;45287;-67
2023/01/04 09:09:49;;;;;;;;;1.50;1.50;;;;;12.18;72.68;101965.72;5059388;28;45524;-65
2023/01/04 09:12:14;;;;;;;;;3.00;2.00;;;;;12.15;72.55;101966.59;5059270;28;45292;-67
2023/01/04 09:14:40;;;;;;;;;3.00;3.00;;;;;12.22;72.64;101985.06;5059784;28;45265;-64
2023/01/04 09:17:05;;;;;;;;;2.00;2.00;;;;;12.25;72.56;101964.84;5055306;28;45249;-64
2023/01/04 09:19:31;;;;;;;;;3.75;3.50;;;;;12.23;72.96;101963.97;5055221;28;45153;-65
2023/01/04 09:21:56;;;;;;;;;6.00;2.75;;;;;12.21;72.67;101957.81;5078472;28;47110;-64
2023/01/04 09:24:22;;;;;;;;;5.00;4.50;;;;;12.27;72.65;101957.78;5063004;28;45258;-63
2023/01/04 09:26:47;;;;;;;;;3.50;3.50;;;;;12.23;72.52;101955.19;5062841;28;45330;-64
2023/01/04 09:29:13;;;;;;;;;5.25;4.00;;;;;12.29;73.10;101960.41;5063244;28;45299;-64
2023/01/04 09:31:38;;;;;;;;;8.75;7.75;;;;;12.27;73.01;101970.97;5062783;28;46271;-64
2023/01/04 09:34:03;;;;;;;;;11.25;11.00;;;;;12.24;72.23;101951.66;5062947;28;45394;-64
2023/01/04 09:36:29;;;;;;;;;9.00;6.00;;;;;12.23;73.11;101956.06;5062816;27;45336;-64
2023/01/04 09:38:54;;;;;;;;;6.00;4.50;;;;;12.23;72.92;101969.22;5062597;27;45508;-64
2023/01/04 09:41:27;;;;;;;;;8.75;7.50;;;;;12.26;73.06;101982.38;5062294;28;46069;-64
2023/01/04 09:43:57;;;;;;;;;7.00;6.00;;;;;12.28;73.18;101956.06;5078465;28;45369;-64
2023/01/04 09:46:31;;;;;;;;;8.75;8.75;;;;;12.23;72.97;101974.50;5062616;28;45364;-63
2023/01/04 09:49:18;;;;;;;;;5.25;5.00;;;;;12.21;72.56;101954.31;5062472;28;45347;-63
2023/01/04 09:52:02;;;;;;;;;8.50;6.50;;;;;12.19;73.07;101967.50;5062304;28;45277;-63
2023/01/04 09:54:44;;;;;;;;;5.00;5.00;;;;;12.25;72.92;101959.56;5062068;28;45230;-63
2023/01/04 09:57:44;;;;;;;;;7.00;5.00;;;;;12.21;72.14;101954.31;5062332;28;45495;-63
2023/01/04 10:00:23;;;;;;;;;7.00;5.75;;;;;12.26;73.06;101989.44;5078372;27;45462;-63
2023/01/04 10:03:13;;;;;;;;;5.75;3.75;;;;;12.20;72.05;101969.25;5077911;28;47423;-63
2023/01/04 10:05:39;;;;;;;;;2.50;2.50;;;;;12.18;73.16;101977.13;5077892;28;45350;-63
2023/01/04 10:08:15;;;;;;;;;5.00;5.00;;;;;12.27;73.10;101973.59;5077968;28;45527;-61
2023/01/04 10:11:00;;;;;;;;;2.50;2.50;;;;;12.34;72.66;101964.81;5062186;28;45239;-63
2023/01/04 10:13:44;;;;;;;;;6.25;4.25;;;;;12.33;73.38;101965.69;5051302;28;45499;-63
2023/01/04 10:16:47;;;;;;;;;4.00;4.00;;;;;12.33;73.13;101970.97;5062013;28;45346;-62
2023/01/04 10:19:46;;;;;;;;;3.25;3.25;;;;;12.34;72.97;101963.94;5051684;28;45501;-63
2023/01/04 10:22:34;;;;;;;;;3.50;3.50;;;;;12.39;73.44;101953.38;5062096;28;45303;-62
2023/01/04 10:25:18;;;;;;;;;3.25;3.25;;;;;12.39;72.91;101951.63;5025063;28;45364;-63
2023/01/04 10:28:22;;;;;;;;;7.00;4.00;;;;;12.32;72.96;101953.38;5061723;28;45319;-62
2023/01/04 10:30:57;;;;;;;;;4.25;3.50;;;;;12.35;73.01;101953.41;5010985;28;45417;-62
2023/01/04 10:33:42;;;;;;;;;4.00;4.00;;;;;12.33;72.56;101965.69;5055641;28;45532;-62
2023/01/04 10:36:23;;;;;;;;;4.25;4.00;;;;;12.31;72.71;101950.75;5061571;28;46039;-62
2023/01/04 10:38:58;;;;;;;;;3.00;2.75;;;;;12.42;73.10;101953.38;5061645;28;45153;-62
2023/01/04 10:41:26;;;;;;;;;4.75;4.00;;;;;12.39;72.59;101940.19;5077367;28;45255;-62
2023/01/04 10:44:19;;;;;;;;;2.50;1.00;;;;;12.43;72.81;101940.19;5061716;28;45212;-62
2023/01/04 10:47:10;;;;;;;;;4.00;4.00;;;;;12.43;72.83;101942.81;5061776;28;46460;-63
2023/01/04 10:49:57;;;;;;;;;2.50;2.50;;;;;12.54;72.58;101944.53;5077154;28;45339;-62
2023/01/04 10:53:00;;;;;;;;;3.25;3.25;;;;;12.48;72.21;101940.19;5061252;28;45221;-63
2023/01/04 10:55:40;;;;;;;;;5.00;4.00;;;;;12.54;72.62;101942.81;5051402;28;45438;-63
2023/01/04 10:58:18;;;;;;;;;4.00;3.50;;;;;12.53;73.30;101933.13;5061104;28;45325;-63
2023/01/04 11:00:52;;;;;;;;;5.00;5.00;;;;;12.60;72.94;101924.31;5061297;28;45319;-63
2023/01/04 11:03:46;;;;;;;;;4.25;3.00;;;;;12.58;73.42;101925.19;5061445;28;45313;-63
2023/01/04 11:06:22;;;;;;;;;3.00;3.00;;;;;12.65;73.34;101914.63;5047841;28;45285;-63
2023/01/04 11:09:02;;;;;;;;;4.00;4.00;;;;;12.62;73.06;101925.19;5076540;28;46159;-62
2023/01/04 11:11:41;;;;;;;;;3.75;3.75;;;;;12.64;73.15;101922.53;5076624;28;45799;-63
2023/01/04 11:14:06;;;;;;;;;3.00;3.00;;;;;12.63;72.97;101907.63;5061379;28;45181;-63
2023/01/04 11:16:32;;;;;;;;;2.00;2.00;;;;;12.63;72.91;101897.94;5060921;28;45216;-62
2023/01/04 11:18:57;;;;;;;;;2.50;2.00;;;;;12.66;72.96;101899.69;5061191;28;45549;-63
2023/01/04 11:21:31;;;;;;;;;4.00;2.75;;;;;12.73;73.16;101903.16;5061072;28;45342;-62
2023/01/04 11:23:59;;;;;;;;;5.00;3.25;;;;;12.74;73.22;101919.00;5076626;28;45273;-63
2023/01/04 11:26:33;;;;;;;;;2.00;2.00;;;;;12.72;72.85;101914.63;5060794;28;45314;-63
2023/01/04 11:29:05;;;;;;;;;2.00;2.00;;;;;12.65;73.02;101898.81;5060792;28;46288;-63
2023/01/04 11:31:38;;;;;;;;;3.00;3.00;;;;;12.70;72.73;101897.91;5060721;28;45433;-63
2023/01/04 11:34:05;;;;;;;;;1.50;1.50;;;;;12.74;73.15;101899.63;5061192;28;45166;-63
2023/01/04 11:36:39;;;;;;;;;2.25;1.00;;;;;12.83;73.19;101904.88;5060534;28;45513;-62
2023/01/04 11:39:25;;;;;;;;;1.50;1.50;;;;;12.83;73.12;101897.84;5060517;28;46134;-63
2023/01/04 11:42:05;;;;;;;;;1.75;1.75;;;;;12.84;73.43;101898.69;5059921;28;45450;-63
2023/01/04 11:44:32;;;;;;;;;3.00;2.00;;;;;12.86;72.85;101902.22;5059562;28;45467;-63
2023/01/04 11:47:19;;;;;;;;;3.50;2.50;;;;;12.86;73.64;101912.78;5076306;28;45202;-63
2023/01/04 11:49:45;;;;;;;;;2.00;2.00;;;;;12.88;72.98;101910.13;5071719;27;47800;-63
2023/01/04 11:52:35;;;;;;;;;3.00;3.00;;;;;12.89;73.23;101902.19;5057000;28;45304;-63
2023/01/04 11:55:21;;;;;;;;;2.25;2.25;;;;;12.86;73.30;101904.00;5076437;28;45330;-65
2023/01/04 11:57:47;;;;;;;;;2.75;2.75;;;;;12.87;73.48;101909.25;5048026;28;45423;-63
2023/01/04 12:00:14;;;;;;;;;3.00;2.00;;;;;12.89;74.06;101915.38;5060422;28;45249;-64
2023/01/04 12:02:39;;;;;;;;;3.75;2.50;;;;;12.90;73.54;101896.03;5060482;28;45275;-63
2023/01/04 12:05:17;;;;;;;;;3.00;3.00;;;;;12.89;73.41;101903.97;5060436;28;45482;-62
2023/01/04 12:07:43;;;;;;;;;1.00;1.00;;;;;12.89;74.14;101902.19;5060329;28;45276;-63
2023/01/04 12:10:22;;;;;;;;;2.50;2.50;;;;;12.91;73.51;101889.00;5060100;28;46053;-64
2023/01/04 12:12:48;;;;;;;;;3.50;3.00;;;;;12.92;73.65;101872.31;5075863;28;45352;-63
2023/01/04 12:15:25;;;;;;;;;2.50;2.50;;;;;12.89;74.23;101865.25;5060164;27;45238;-62
2023/01/04 12:18:27;;;;;;;;;2.50;1.25;;;;;12.90;73.94;101876.69;5060328;28;45225;-64
2023/01/04 12:20:54;;;;;;;;;1.50;1.00;;;;;12.87;74.11;101867.03;5028042;28;46271;-64
2023/01/04 12:23:20;;;;;;;;;3.75;2.75;;;;;12.86;74.12;101865.28;5059668;28;45255;-62